Time;durP1;ratioP1;P1;durP2;ratioP2;P2;SDS_P1;SDS_P2;PMS_P1;PMS_P2;Temp;Humidity;BMP_temperature;BMP_pressure;BME280_temperature;BME280_humidity;BME280_pressure;Samples;Min_cycle;Max_cycle;Signal;HPM_P1;HPM_P2
2023/01/08 00:01:16;;;;;;;5.00;3.97;;;9.20;99.90;;;;;;5004415;28;20505;-57
2023/01/08 00:03:47;;;;;;;6.50;4.30;;;9.20;99.90;;;;;;5012864;28;20442;-59
2023/01/08 00:06:17;;;;;;;5.33;3.30;;;9.10;99.90;;;;;;5012339;28;20464;-59
2023/01/08 00:08:46;;;;;;;6.67;4.40;;;9.10;99.90;;;;;;5012663;28;20597;-60
2023/01/08 00:11:14;;;;;;;4.30;3.23;;;9.10;99.90;;;;;;5016029;28;20445;-59
2023/01/08 00:13:41;;;;;;;5.03;3.60;;;9.10;99.90;;;;;;5015428;28;20462;-53
2023/01/08 00:16:09;;;;;;;7.80;4.63;;;9.10;99.90;;;;;;5015484;28;20426;-58
2023/01/08 00:18:36;;;;;;;4.50;4.10;;;9.10;99.90;;;;;;5005418;28;20455;-57
2023/01/08 00:21:06;;;;;;;6.30;4.47;;;9.10;99.90;;;;;;4986765;28;20489;-60
2023/01/08 00:23:33;;;;;;;5.37;3.63;;;9.10;99.90;;;;;;4996323;28;20493;-63
2023/01/08 00:26:01;;;;;;;5.50;3.53;;;9.00;99.90;;;;;;4996522;28;20502;-59
2023/01/08 00:28:28;;;;;;;6.70;4.13;;;9.10;99.90;;;;;;4996760;28;20443;-58
2023/01/08 00:30:55;;;;;;;4.17;3.73;;;9.00;99.90;;;;;;4996813;28;20454;-60
2023/01/08 00:33:21;;;;;;;5.63;4.30;;;9.00;99.90;;;;;;5006953;28;20458;-56
2023/01/08 00:35:50;;;;;;;6.30;4.03;;;9.00;99.90;;;;;;5003598;28;20485;-54
2023/01/08 00:38:18;;;;;;;4.50;3.80;;;8.90;99.90;;;;;;4992634;28;20466;-59
2023/01/08 00:40:45;;;;;;;5.87;4.60;;;8.90;99.90;;;;;;4986030;28;20986;-61
2023/01/08 00:43:13;;;;;;;5.60;3.60;;;8.90;99.90;;;;;;4994390;28;20455;-55
2023/01/08 00:45:40;;;;;;;6.50;3.90;;;8.90;99.90;;;;;;4995504;28;20446;-59
2023/01/08 00:48:07;;;;;;;4.30;3.50;;;8.90;99.90;;;;;;4986106;28;20458;-58
2023/01/08 00:50:35;;;;;;;7.00;4.23;;;8.90;99.90;;;;;;4995555;28;20729;-57
2023/01/08 00:53:04;;;;;;;6.30;4.53;;;8.90;99.90;;;;;;4996115;28;20480;-59
2023/01/08 00:55:32;;;;;;;5.43;4.17;;;8.80;99.90;;;;;;4990384;28;20528;-61
2023/01/08 00:58:00;;;;;;;7.17;4.50;;;8.80;99.90;;;;;;5004156;28;20461;-60
2023/01/08 01:00:27;;;;;;;5.93;3.70;;;8.70;99.90;;;;;;5014086;28;20543;-59
2023/01/08 01:02:54;;;;;;;4.87;3.43;;;8.70;99.90;;;;;;5012880;28;20515;-59
2023/01/08 01:05:21;;;;;;;5.73;3.90;;;8.60;99.90;;;;;;5013708;28;20457;-58
2023/01/08 01:07:48;;;;;;;6.30;3.87;;;8.60;99.90;;;;;;5013504;28;20469;-59
2023/01/08 01:10:16;;;;;;;6.43;4.00;;;8.60;99.90;;;;;;5013551;28;20446;-57
2023/01/08 01:12:44;;;;;;;5.20;3.73;;;8.50;99.90;;;;;;5013667;28;20442;-58
2023/01/08 01:15:14;;;;;;;5.33;3.53;;;8.50;99.90;;;;;;5013546;28;20445;-58
2023/01/08 01:17:42;;;;;;;6.30;4.20;;;8.50;99.90;;;;;;5013599;28;20453;-58
2023/01/08 01:20:17;;;;;;;3.97;3.40;;;8.50;99.90;;;;;;5013680;28;20856;-58
2023/01/08 01:22:44;;;;;;;6.37;3.80;;;8.50;99.90;;;;;;5013833;28;20784;-58
2023/01/08 01:25:11;;;;;;;8.20;4.80;;;8.50;99.90;;;;;;5013884;28;20517;-57
2023/01/08 01:27:38;;;;;;;4.83;3.87;;;8.40;99.90;;;;;;5013801;28;20446;-57
2023/01/08 01:30:08;;;;;;;8.10;4.73;;;8.40;99.90;;;;;;5003267;28;20458;-58
2023/01/08 01:32:35;;;;;;;9.30;4.73;;;8.40;99.90;;;;;;5013761;28;20478;-56
2023/01/08 01:35:03;;;;;;;6.70;4.20;;;8.30;99.90;;;;;;5014888;28;20438;-60
2023/01/08 01:37:29;;;;;;;8.03;4.23;;;8.30;99.90;;;;;;5013166;28;20469;-56
2023/01/08 01:39:57;;;;;;;8.10;4.77;;;8.30;99.90;;;;;;5012680;28;20446;-56
2023/01/08 01:42:42;;;;;;;4.77;4.10;;;8.30;99.90;;;;;;5013246;28;20466;-59
2023/01/08 01:45:21;;;;;;;5.90;4.30;;;8.30;99.90;;;;;;5014148;28;20481;-59
2023/01/08 01:47:53;;;;;;;5.70;3.60;;;8.20;99.90;;;;;;5013220;28;20426;-55
2023/01/08 01:50:25;;;;;;;6.47;4.77;;;8.20;99.90;;;;;;5013199;28;20548;-58
2023/01/08 01:53:07;;;;;;;7.03;4.40;;;8.10;99.90;;;;;;5007125;28;20461;-59
2023/01/08 01:55:35;;;;;;;8.30;5.90;;;8.10;99.90;;;;;;5013193;28;20434;-59
2023/01/08 01:58:08;;;;;;;8.63;4.83;;;8.10;99.90;;;;;;5012819;28;20457;-58
2023/01/08 02:00:38;;;;;;;7.40;3.73;;;8.10;99.90;;;;;;5013205;28;20465;-64
2023/01/08 02:03:05;;;;;;;7.30;6.30;;;8.10;99.90;;;;;;5005411;28;20535;-57
2023/01/08 02:05:38;;;;;;;6.43;4.40;;;8.10;99.90;;;;;;4998751;28;20530;-59
2023/01/08 02:08:10;;;;;;;4.77;4.27;;;8.10;99.90;;;;;;4988787;28;20479;-57
2023/01/08 02:10:45;;;;;;;7.43;4.43;;;8.00;99.90;;;;;;4993393;28;20444;-56
2023/01/08 02:13:16;;;;;;;6.70;4.90;;;8.00;99.90;;;;;;5004970;28;20460;-59
2023/01/08 02:15:54;;;;;;;7.47;4.80;;;7.90;99.90;;;;;;5002621;28;20481;-57
2023/01/08 02:18:31;;;;;;;7.17;4.43;;;8.00;99.90;;;;;;5013112;28;20465;-59
2023/01/08 02:21:03;;;;;;;7.23;4.27;;;7.90;99.90;;;;;;5004813;28;20485;-58
2023/01/08 02:23:37;;;;;;;7.43;4.90;;;7.90;99.90;;;;;;5011852;28;20472;-57
2023/01/08 02:26:26;;;;;;;5.77;4.60;;;7.90;99.90;;;;;;5005919;28;20481;-59
2023/01/08 02:28:58;;;;;;;8.83;6.13;;;7.90;99.90;;;;;;4993894;28;20447;-58
2023/01/08 02:31:29;;;;;;;5.20;4.47;;;7.90;99.90;;;;;;4993383;28;20427;-59
2023/01/08 02:33:58;;;;;;;7.60;4.70;;;7.90;99.90;;;;;;4992990;28;20453;-58
2023/01/08 02:36:37;;;;;;;7.83;4.93;;;7.90;99.90;;;;;;4993289;28;20456;-59
2023/01/08 02:39:16;;;;;;;7.33;4.83;;;7.80;99.90;;;;;;5002096;28;20480;-57
2023/01/08 02:42:04;;;;;;;8.57;5.60;;;7.80;99.90;;;;;;5013524;28;20458;-59
2023/01/08 02:44:41;;;;;;;6.83;4.53;;;7.80;99.90;;;;;;5013931;28;20426;-59
2023/01/08 02:47:18;;;;;;;7.70;5.10;;;7.80;99.90;;;;;;5013410;28;20450;-59
2023/01/08 02:49:48;;;;;;;8.77;5.17;;;7.70;99.90;;;;;;5012947;28;20441;-59
2023/01/08 02:52:18;;;;;;;8.57;5.13;;;7.70;99.90;;;;;;5001783;28;20581;-59
2023/01/08 02:54:47;;;;;;;8.27;5.83;;;7.70;99.90;;;;;;5010767;28;20441;-59
2023/01/08 02:57:17;;;;;;;6.93;4.70;;;7.70;99.90;;;;;;5010650;28;20476;-61
2023/01/08 02:59:45;;;;;;;7.63;5.30;;;7.70;99.90;;;;;;5009081;28;20434;-58
2023/01/08 03:02:12;;;;;;;6.37;4.60;;;7.70;99.90;;;;;;4997105;28;20585;-58
2023/01/08 03:04:46;;;;;;;9.53;5.10;;;7.70;99.90;;;;;;5007747;28;20453;-56
2023/01/08 03:07:13;;;;;;;10.50;5.00;;;7.60;99.90;;;;;;5011872;28;20430;-59
2023/01/08 03:09:43;;;;;;;8.93;4.80;;;7.60;99.90;;;;;;5012704;28;20449;-59
2023/01/08 03:12:15;;;;;;;6.23;5.07;;;7.60;99.90;;;;;;5002378;28;20442;-58
2023/01/08 03:14:50;;;;;;;9.90;5.30;;;7.60;99.90;;;;;;5012958;28;20445;-58
2023/01/08 03:17:21;;;;;;;4.97;4.47;;;7.50;99.90;;;;;;5002649;28;20505;-58
2023/01/08 03:19:52;;;;;;;8.37;4.83;;;7.50;99.90;;;;;;5011786;28;20457;-60
2023/01/08 03:22:21;;;;;;;9.00;5.10;;;7.50;99.90;;;;;;5012362;28;20461;-58
2023/01/08 03:24:53;;;;;;;6.83;5.20;;;7.50;99.90;;;;;;5011952;28;20481;-59
2023/01/08 03:27:28;;;;;;;5.87;4.80;;;7.50;99.90;;;;;;5012224;28;20458;-59
2023/01/08 03:29:59;;;;;;;5.13;4.63;;;7.50;99.90;;;;;;5012556;28;20478;-58
2023/01/08 03:32:28;;;;;;;7.07;5.20;;;7.50;99.90;;;;;;5011747;28;20461;-58
2023/01/08 03:34:58;;;;;;;9.07;4.70;;;7.60;99.90;;;;;;5011524;28;20477;-57
2023/01/08 03:37:29;;;;;;;7.53;4.80;;;7.60;99.90;;;;;;5004809;28;20439;-57
2023/01/08 03:40:00;;;;;;;9.23;5.00;;;7.60;99.90;;;;;;5010417;28;20466;-58
2023/01/08 03:42:30;;;;;;;8.00;4.97;;;7.60;99.90;;;;;;5011128;28;20485;-59
2023/01/08 03:44:59;;;;;;;7.50;5.13;;;7.50;99.90;;;;;;5005676;28;20445;-58
2023/01/08 03:47:29;;;;;;;8.47;5.53;;;7.50;99.90;;;;;;4993177;28;20467;-58
2023/01/08 03:50:01;;;;;;;5.50;4.47;;;7.50;99.90;;;;;;4992076;28;20462;-59
2023/01/08 03:52:31;;;;;;;8.63;5.60;;;7.50;99.90;;;;;;5007296;28;20457;-60
2023/01/08 03:54:58;;;;;;;6.80;4.37;;;7.50;99.90;;;;;;5011830;28;20472;-58
2023/01/08 03:57:25;;;;;;;8.67;5.73;;;7.50;99.90;;;;;;5011416;28;20454;-60
2023/01/08 03:59:52;;;;;;;8.17;4.70;;;7.50;99.90;;;;;;5011807;28;20450;-57
2023/01/08 04:02:21;;;;;;;7.27;5.10;;;7.50;99.90;;;;;;4997209;28;20502;-59
2023/01/08 04:04:51;;;;;;;8.00;4.80;;;7.50;99.90;;;;;;4996122;28;20451;-57
2023/01/08 04:07:18;;;;;;;9.97;6.00;;;7.50;99.90;;;;;;4991483;28;20471;-57
2023/01/08 04:09:45;;;;;;;9.73;5.00;;;7.50;99.90;;;;;;4991871;28;20458;-59
2023/01/08 04:12:17;;;;;;;10.63;6.00;;;7.50;99.90;;;;;;4995174;28;20478;-59
2023/01/08 04:14:44;;;;;;;5.43;4.30;;;7.40;99.90;;;;;;4990110;28;20446;-57
2023/01/08 04:17:12;;;;;;;6.87;4.90;;;7.40;99.90;;;;;;4999738;28;20457;-59
2023/01/08 04:19:42;;;;;;;7.10;5.20;;;7.40;99.90;;;;;;4996009;28;20475;-53
2023/01/08 04:22:09;;;;;;;8.60;5.97;;;7.40;99.90;;;;;;5005101;28;20494;-59
2023/01/08 04:24:36;;;;;;;5.43;4.47;;;7.40;99.90;;;;;;4992148;28;20466;-58
2023/01/08 04:27:03;;;;;;;9.77;5.60;;;7.40;99.90;;;;;;4990572;28;20434;-57
2023/01/08 04:29:30;;;;;;;7.97;5.53;;;7.40;99.90;;;;;;5004114;28;20462;-56
2023/01/08 04:31:57;;;;;;;8.00;5.43;;;7.40;99.90;;;;;;5010499;28;20496;-54
2023/01/08 04:34:24;;;;;;;7.63;5.63;;;7.40;99.90;;;;;;5011048;28;20442;-58
2023/01/08 04:36:52;;;;;;;7.67;5.30;;;7.50;99.90;;;;;;5010757;28;20453;-57
2023/01/08 04:39:19;;;;;;;7.27;5.20;;;7.50;99.90;;;;;;5007454;28;20454;-58
2023/01/08 04:41:46;;;;;;;6.80;4.90;;;7.50;99.90;;;;;;5010786;28;20501;-63
2023/01/08 04:44:13;;;;;;;9.03;5.70;;;7.50;99.90;;;;;;5006680;28;20847;-56
2023/01/08 04:46:40;;;;;;;7.10;5.43;;;7.50;99.90;;;;;;5001192;28;20480;-57
2023/01/08 04:49:06;;;;;;;9.23;5.80;;;7.50;99.90;;;;;;4991815;28;21065;-58
2023/01/08 04:51:33;;;;;;;8.17;5.43;;;7.50;99.90;;;;;;5003648;28;20485;-57
2023/01/08 04:54:02;;;;;;;9.60;5.80;;;7.50;99.90;;;;;;5008937;28;20446;-59
2023/01/08 04:56:28;;;;;;;9.10;6.10;;;7.50;99.90;;;;;;5000343;28;20465;-57
2023/01/08 04:58:55;;;;;;;6.13;4.87;;;7.50;99.90;;;;;;5000051;28;20495;-60
2023/01/08 05:01:24;;;;;;;7.10;5.43;;;7.50;99.90;;;;;;5023265;28;20496;-57
2023/01/08 05:03:54;;;;;;;5.60;4.83;;;7.50;99.90;;;;;;5014774;28;20493;-58
2023/01/08 05:06:22;;;;;;;7.00;5.40;;;7.50;99.90;;;;;;5009262;28;20488;-59
2023/01/08 05:08:49;;;;;;;5.40;4.20;;;7.60;99.90;;;;;;5013451;28;20461;-57
2023/01/08 05:11:18;;;;;;;7.17;4.67;;;7.60;99.90;;;;;;5014278;28;20442;-58
2023/01/08 05:13:48;;;;;;;7.97;5.80;;;7.60;99.90;;;;;;5013397;28;20449;-59
2023/01/08 05:16:15;;;;;;;7.30;5.83;;;7.60;99.90;;;;;;5013747;28;20460;-58
2023/01/08 05:18:42;;;;;;;8.37;5.90;;;7.70;99.90;;;;;;5014147;28;20426;-58
2023/01/08 05:21:09;;;;;;;7.83;5.47;;;7.70;99.90;;;;;;5013308;28;20477;-58
2023/01/08 05:23:36;;;;;;;6.70;5.90;;;7.70;99.90;;;;;;5013270;28;20883;-57
2023/01/08 05:26:05;;;;;;;6.63;5.20;;;7.60;99.90;;;;;;5013743;28;20490;-57
2023/01/08 05:28:34;;;;;;;10.90;5.60;;;7.70;99.90;;;;;;5002059;28;20461;-57
2023/01/08 05:31:01;;;;;;;6.63;5.53;;;7.70;99.90;;;;;;5014374;28;20449;-56
2023/01/08 05:33:28;;;;;;;6.60;4.97;;;7.60;99.90;;;;;;5013315;28;20548;-59
2023/01/08 05:35:55;;;;;;;9.03;5.63;;;7.60;99.90;;;;;;5005516;28;20502;-59
2023/01/08 05:38:25;;;;;;;7.10;5.00;;;7.60;99.90;;;;;;5013407;28;20500;-56
2023/01/08 05:40:52;;;;;;;8.70;5.90;;;7.60;99.90;;;;;;5013680;28;20474;-58
2023/01/08 05:43:19;;;;;;;6.63;4.93;;;7.60;99.90;;;;;;5013291;28;20646;-59
2023/01/08 05:45:47;;;;;;;6.50;5.03;;;7.60;99.90;;;;;;5007045;28;20478;-59
2023/01/08 05:48:14;;;;;;;7.13;4.57;;;7.60;99.90;;;;;;5011366;28;20450;-59
2023/01/08 05:50:41;;;;;;;8.20;5.77;;;7.60;99.90;;;;;;5010290;28;20446;-60
2023/01/08 05:53:09;;;;;;;5.07;4.57;;;7.60;99.90;;;;;;5013714;28;20427;-59
2023/01/08 05:55:36;;;;;;;6.43;5.17;;;7.70;99.90;;;;;;5004773;28;20502;-55
2023/01/08 05:58:04;;;;;;;7.10;4.20;;;7.70;99.90;;;;;;5013112;28;20454;-59
2023/01/08 06:00:32;;;;;;;9.87;5.97;;;7.80;99.90;;;;;;5012691;28;20488;-58
2023/01/08 06:03:01;;;;;;;6.20;4.10;;;7.80;99.90;;;;;;5013151;28;20474;-58
2023/01/08 06:05:27;;;;;;;8.97;5.20;;;7.70;99.90;;;;;;5012391;28;20454;-58
2023/01/08 06:07:54;;;;;;;6.10;4.43;;;7.80;99.90;;;;;;4995602;28;20473;-58
2023/01/08 06:10:21;;;;;;;6.57;5.23;;;7.80;99.90;;;;;;4997292;28;20896;-58
2023/01/08 06:12:48;;;;;;;6.50;5.70;;;7.80;99.90;;;;;;4985705;28;20530;-56
2023/01/08 06:15:15;;;;;;;5.30;4.20;;;7.80;99.90;;;;;;4993698;28;20427;-59
2023/01/08 06:17:42;;;;;;;7.67;5.10;;;7.90;99.90;;;;;;4988419;28;20487;-56
2023/01/08 06:20:11;;;;;;;4.90;4.00;;;7.90;99.90;;;;;;4988720;28;20481;-56
2023/01/08 06:22:38;;;;;;;9.50;5.20;;;7.90;99.90;;;;;;4993913;28;20518;-57
2023/01/08 06:25:06;;;;;;;8.37;5.67;;;7.90;99.90;;;;;;4984269;28;20542;-54
2023/01/08 06:27:33;;;;;;;6.53;4.83;;;7.90;99.90;;;;;;4992898;28;20577;-57
2023/01/08 06:29:59;;;;;;;6.83;4.97;;;7.90;99.90;;;;;;4993193;28;20471;-52
2023/01/08 06:32:26;;;;;;;5.33;4.33;;;8.00;99.90;;;;;;5011415;28;20461;-58
2023/01/08 06:34:53;;;;;;;7.57;5.33;;;7.90;99.90;;;;;;5004665;28;20478;-58
2023/01/08 06:37:21;;;;;;;4.43;4.00;;;8.00;99.90;;;;;;5001981;28;20410;-61
2023/01/08 06:39:48;;;;;;;5.80;4.60;;;8.00;99.90;;;;;;5006170;28;20473;-54
2023/01/08 06:42:18;;;;;;;8.10;5.30;;;8.00;99.90;;;;;;5014248;28;20477;-59
2023/01/08 06:44:45;;;;;;;6.87;4.63;;;8.00;99.90;;;;;;5013922;28;20474;-59
2023/01/08 06:47:11;;;;;;;6.67;5.10;;;8.00;99.90;;;;;;5013962;28;20476;-57
2023/01/08 06:49:38;;;;;;;9.80;5.00;;;8.00;99.90;;;;;;5013735;28;20445;-59
2023/01/08 06:52:07;;;;;;;9.37;5.33;;;8.00;99.90;;;;;;5013205;28;20810;-58
2023/01/08 06:54:38;;;;;;;7.50;4.50;;;8.10;99.90;;;;;;5012684;28;20442;-58
2023/01/08 06:57:07;;;;;;;5.73;4.60;;;8.10;99.90;;;;;;5012404;28;20450;-57
2023/01/08 06:59:34;;;;;;;5.80;4.70;;;8.10;99.90;;;;;;5004369;28;20526;-56
2023/01/08 07:02:01;;;;;;;6.13;4.20;;;8.10;99.90;;;;;;5011523;28;20474;-57
2023/01/08 07:04:28;;;;;;;6.57;5.10;;;8.10;99.90;;;;;;5011926;28;20470;-58
2023/01/08 07:06:55;;;;;;;6.60;5.10;;;8.10;99.90;;;;;;5012416;28;20484;-54
2023/01/08 07:09:21;;;;;;;8.13;4.90;;;8.10;99.90;;;;;;5012162;28;20450;-59
2023/01/08 07:11:50;;;;;;;6.80;5.10;;;8.20;99.90;;;;;;5011929;28;20442;-57
2023/01/08 07:14:16;;;;;;;4.90;4.40;;;8.20;99.90;;;;;;5011578;28;20446;-59
2023/01/08 07:16:43;;;;;;;7.87;4.67;;;8.20;99.90;;;;;;5011898;28;20469;-59
2023/01/08 07:19:10;;;;;;;9.07;4.50;;;8.20;99.90;;;;;;5011931;28;20446;-58
2023/01/08 07:21:37;;;;;;;5.57;4.37;;;8.20;99.90;;;;;;5011393;28;20477;-59
2023/01/08 07:24:06;;;;;;;5.23;4.73;;;8.20;99.90;;;;;;5012103;28;20450;-58
2023/01/08 07:26:33;;;;;;;6.20;3.97;;;8.20;99.90;;;;;;5011702;28;20604;-57
2023/01/08 07:29:01;;;;;;;5.10;3.73;;;8.30;99.90;;;;;;5012108;28;20450;-59
2023/01/08 07:31:28;;;;;;;5.93;4.50;;;8.30;99.90;;;;;;5006181;28;20463;-58
2023/01/08 07:33:55;;;;;;;5.50;4.20;;;8.30;99.90;;;;;;5005663;28;20466;-55
2023/01/08 07:36:23;;;;;;;5.37;3.87;;;8.40;99.90;;;;;;5011620;28;20442;-55
2023/01/08 07:38:52;;;;;;;5.27;4.00;;;8.40;99.90;;;;;;5012270;28;20534;-59
2023/01/08 07:41:19;;;;;;;4.50;3.60;;;8.40;99.90;;;;;;5012369;28;20426;-58
2023/01/08 07:43:47;;;;;;;6.47;4.50;;;8.40;99.90;;;;;;5011385;28;20465;-56
2023/01/08 07:46:16;;;;;;;11.07;7.13;;;8.40;99.90;;;;;;5012040;28;20438;-57
2023/01/08 07:48:43;;;;;;;5.50;3.97;;;8.40;99.90;;;;;;5001971;28;20466;-58
2023/01/08 07:51:11;;;;;;;5.27;3.80;;;8.40;99.90;;;;;;4991618;28;20486;-57
2023/01/08 07:53:38;;;;;;;9.67;4.30;;;8.30;99.90;;;;;;4998325;28;20439;-56
2023/01/08 07:56:07;;;;;;;9.57;5.47;;;8.30;99.90;;;;;;5007514;28;20519;-57
2023/01/08 07:58:37;;;;;;;5.07;3.90;;;8.30;99.90;;;;;;5011708;28;20435;-60
2023/01/08 08:01:05;;;;;;;3.93;3.10;;;8.30;99.90;;;;;;5012816;28;20430;-58
2023/01/08 08:03:33;;;;;;;5.57;3.83;;;8.30;99.90;;;;;;5012967;28;20648;-50
2023/01/08 08:06:00;;;;;;;6.30;3.93;;;8.30;99.90;;;;;;5011469;28;20442;-56
2023/01/08 08:08:27;;;;;;;5.13;3.50;;;8.30;99.90;;;;;;5008662;28;20465;-56
2023/01/08 08:10:54;;;;;;;4.40;3.80;;;8.40;99.90;;;;;;5007996;28;20454;-59
2023/01/08 08:13:21;;;;;;;4.73;3.43;;;8.40;99.90;;;;;;5005737;28;21030;-56
2023/01/08 08:15:48;;;;;;;3.70;3.13;;;8.40;99.90;;;;;;5010759;28;20441;-57
2023/01/08 08:18:15;;;;;;;6.27;3.70;;;8.40;99.90;;;;;;5019133;28;20442;-62
2023/01/08 08:20:43;;;;;;;5.10;3.97;;;8.40;99.90;;;;;;5019564;28;20446;-59
2023/01/08 08:23:14;;;;;;;13.87;5.17;;;8.50;99.90;;;;;;5023385;28;20492;-59
2023/01/08 08:25:42;;;;;;;6.87;4.33;;;8.50;99.90;;;;;;5017365;28;20484;-58
2023/01/08 08:28:11;;;;;;;4.97;3.63;;;8.50;99.90;;;;;;5016467;28;20916;-60
2023/01/08 08:30:39;;;;;;;6.60;4.33;;;8.50;99.90;;;;;;5020779;28;20449;-57
2023/01/08 08:33:07;;;;;;;5.87;4.10;;;8.50;99.90;;;;;;5018739;28;20426;-57
2023/01/08 08:35:35;;;;;;;6.33;4.00;;;8.50;99.90;;;;;;5022296;28;20445;-57
2023/01/08 08:38:06;;;;;;;5.97;3.67;;;8.60;99.90;;;;;;5018327;28;20466;-59
2023/01/08 08:40:33;;;;;;;5.40;4.03;;;8.60;99.90;;;;;;5020851;28;20460;-59
2023/01/08 08:43:01;;;;;;;4.70;3.13;;;8.60;99.90;;;;;;5002980;28;20542;-55
2023/01/08 08:45:29;;;;;;;3.77;3.27;;;8.60;99.90;;;;;;5000221;28;20634;-60
2023/01/08 08:47:56;;;;;;;6.97;4.33;;;8.70;99.90;;;;;;5013949;28;20469;-51
2023/01/08 08:50:23;;;;;;;5.13;3.67;;;8.70;99.90;;;;;;5008266;28;20447;-61
2023/01/08 08:52:50;;;;;;;7.47;4.67;;;8.80;99.90;;;;;;4995916;28;20423;-59
2023/01/08 08:55:19;;;;;;;6.13;3.60;;;8.90;99.90;;;;;;4994979;28;20457;-59
2023/01/08 08:57:47;;;;;;;6.93;3.70;;;8.90;99.90;;;;;;4995377;28;20465;-60
2023/01/08 09:00:16;;;;;;;8.90;5.10;;;9.00;99.90;;;;;;4995344;28;20442;-57
2023/01/08 09:02:43;;;;;;;7.40;4.60;;;9.00;99.90;;;;;;4996023;28;20483;-60
2023/01/08 09:05:10;;;;;;;5.33;4.30;;;9.00;99.90;;;;;;5011593;28;20430;-58
2023/01/08 09:07:37;;;;;;;6.57;4.20;;;9.00;99.90;;;;;;5002796;28;20495;-58
2023/01/08 09:10:05;;;;;;;5.63;3.63;;;9.10;99.90;;;;;;5009866;28;20467;-57
2023/01/08 09:12:33;;;;;;;6.23;3.77;;;9.10;99.90;;;;;;5011169;28;20495;-61
2023/01/08 09:15:04;;;;;;;11.07;4.67;;;9.10;99.90;;;;;;4999382;28;20462;-59
2023/01/08 09:17:31;;;;;;;4.80;4.13;;;9.20;99.90;;;;;;5003753;28;20484;-59
2023/01/08 09:19:57;;;;;;;5.83;3.63;;;9.20;99.90;;;;;;5007834;28;20454;-63
2023/01/08 09:22:24;;;;;;;6.17;4.67;;;9.30;99.90;;;;;;5007439;28;20462;-60
2023/01/08 09:24:51;;;;;;;5.90;4.53;;;9.40;99.90;;;;;;5006700;28;20442;-51
2023/01/08 09:27:18;;;;;;;8.60;4.90;;;9.50;99.90;;;;;;4998710;28;20438;-56
2023/01/08 09:29:48;;;;;;;7.40;4.77;;;9.50;99.90;;;;;;4994017;28;20427;-59
2023/01/08 09:32:14;;;;;;;3.63;3.17;;;9.50;99.90;;;;;;5007486;28;20442;-58
2023/01/08 09:34:41;;;;;;;5.00;4.17;;;9.50;99.90;;;;;;4998183;28;20439;-59
2023/01/08 09:37:11;;;;;;;8.33;4.20;;;9.50;99.90;;;;;;5010519;28;20457;-61
2023/01/08 09:39:38;;;;;;;8.17;4.30;;;9.50;99.90;;;;;;5000429;28;20459;-59
2023/01/08 09:42:11;;;;;;;4.53;3.73;;;9.50;99.90;;;;;;5011935;28;20773;-58
2023/01/08 09:44:42;;;;;;;4.03;3.10;;;9.70;99.90;;;;;;5008224;28;20437;-62
2023/01/08 09:47:25;;;;;;;4.80;3.63;;;9.70;99.90;;;;;;5013423;28;20426;-61
2023/01/08 09:49:55;;;;;;;8.77;5.63;;;9.70;99.90;;;;;;5012912;28;20438;-61
2023/01/08 09:52:22;;;;;;;5.60;3.20;;;9.60;99.90;;;;;;5012566;28;20496;-63
2023/01/08 09:54:48;;;;;;;8.40;4.67;;;9.60;99.90;;;;;;5013274;28;20474;-58
2023/01/08 09:57:20;;;;;;;3.80;2.97;;;9.60;99.90;;;;;;5013170;28;20446;-59
2023/01/08 09:59:48;;;;;;;5.13;3.67;;;9.50;99.90;;;;;;5013110;28;20821;-61
2023/01/08 10:02:19;;;;;;;10.53;4.10;;;9.50;99.90;;;;;;5012442;28;20469;-63
2023/01/08 10:04:46;;;;;;;7.73;4.03;;;9.50;99.90;;;;;;4984386;28;20483;-60
2023/01/08 10:07:20;;;;;;;3.83;3.10;;;9.50;99.90;;;;;;4993390;28;20446;-57
2023/01/08 10:09:48;;;;;;;4.63;3.40;;;9.90;99.90;;;;;;4993198;28;21036;-59
2023/01/08 10:12:16;;;;;;;6.27;3.83;;;9.80;99.90;;;;;;4993237;28;20666;-60
2023/01/08 10:14:48;;;;;;;4.50;3.23;;;9.70;99.90;;;;;;4992922;28;20440;-63
2023/01/08 10:17:26;;;;;;;4.27;3.50;;;9.60;99.90;;;;;;4994056;28;20427;-59
2023/01/08 10:19:53;;;;;;;6.90;3.73;;;9.50;99.90;;;;;;4993410;28;20450;-60
2023/01/08 10:22:22;;;;;;;4.43;3.33;;;9.50;99.90;;;;;;4993440;28;20454;-56
2023/01/08 10:24:49;;;;;;;4.87;3.27;;;9.50;99.90;;;;;;4992861;28;20454;-60
2023/01/08 10:27:19;;;;;;;5.10;3.50;;;9.50;99.90;;;;;;4992772;28;20466;-56
2023/01/08 10:29:50;;;;;;;5.13;3.37;;;9.50;99.90;;;;;;5007666;28;20968;-60
2023/01/08 10:32:20;;;;;;;5.80;4.23;;;9.50;99.90;;;;;;5011573;28;20450;-58
2023/01/08 10:34:49;;;;;;;10.50;3.60;;;9.50;99.90;;;;;;5012027;28;20438;-60
2023/01/08 10:37:24;;;;;;;8.10;4.00;;;9.40;99.90;;;;;;5012107;28;20465;-61
2023/01/08 10:39:52;;;;;;;10.00;5.30;;;9.40;99.90;;;;;;5012183;28;20469;-58
2023/01/08 10:42:23;;;;;;;6.00;4.27;;;9.40;99.90;;;;;;5012201;28;20458;-62
2023/01/08 10:45:00;;;;;;;5.37;3.73;;;9.30;99.90;;;;;;5011640;28;20545;-63
2023/01/08 10:47:35;;;;;;;4.20;3.40;;;9.30;99.90;;;;;;5004509;28;20441;-60
2023/01/08 10:50:15;;;;;;;4.80;3.63;;;9.40;99.90;;;;;;5005992;28;20465;-56
2023/01/08 10:52:52;;;;;;;6.73;4.30;;;9.30;99.90;;;;;;5004285;28;20478;-51
2023/01/08 10:55:23;;;;;;;6.93;4.93;;;9.30;99.90;;;;;;4996233;28;20460;-61
2023/01/08 10:57:56;;;;;;;7.10;4.53;;;9.30;99.90;;;;;;4998317;28;20490;-60
2023/01/08 11:00:28;;;;;;;6.73;4.30;;;9.30;99.90;;;;;;4994653;28;20443;-58
2023/01/08 11:02:58;;;;;;;6.23;4.40;;;9.20;99.90;;;;;;5000984;28;20483;-56
2023/01/08 11:05:33;;;;;;;10.53;4.47;;;9.20;99.90;;;;;;5011256;28;20467;-53
2023/01/08 11:08:06;;;;;;;10.37;7.83;;;9.20;99.90;;;;;;5012103;28;20438;-56
2023/01/08 11:10:34;;;;;;;6.27;4.60;;;9.20;99.90;;;;;;5125820;23;20468;-57
2023/01/08 11:13:04;;;;;;;6.27;4.40;;;9.10;99.90;;;;;;5123430;28;20466;-57
2023/01/08 11:15:34;;;;;;;7.60;4.00;;;9.10;99.90;;;;;;5130458;28;20508;-59
2023/01/08 11:18:19;;;;;;;6.07;4.10;;;9.10;99.90;;;;;;5126908;28;20543;-56
2023/01/08 11:20:48;;;;;;;6.23;4.40;;;9.10;99.90;;;;;;5131163;28;20455;-54
2023/01/08 11:23:20;;;;;;;5.57;4.53;;;9.20;99.90;;;;;;5124333;28;20813;-51
2023/01/08 11:26:00;;;;;;;6.73;3.97;;;9.20;99.90;;;;;;5125735;27;20460;-54
2023/01/08 11:28:40;;;;;;;6.43;4.17;;;9.20;99.90;;;;;;5123582;28;20460;-58
2023/01/08 11:31:15;;;;;;;9.03;4.40;;;9.20;99.90;;;;;;5128700;28;20459;-56
2023/01/08 11:33:47;;;;;;;5.50;4.30;;;9.20;99.90;;;;;;5133375;28;20506;-58
2023/01/08 11:36:20;;;;;;;6.87;5.10;;;9.20;99.90;;;;;;5141451;27;20452;-55
2023/01/08 11:38:47;;;;;;;7.50;5.00;;;9.20;99.90;;;;;;5133451;28;20454;-55
2023/01/08 11:41:29;;;;;;;8.90;4.70;;;9.20;99.90;;;;;;5134079;28;20457;-57
2023/01/08 11:44:14;;;;;;;6.73;5.50;;;9.20;99.90;;;;;;5134772;28;20464;-58
2023/01/08 11:46:49;;;;;;;6.10;4.77;;;9.20;99.90;;;;;;5132467;28;20501;-58
2023/01/08 11:49:40;;;;;;;6.00;4.83;;;9.60;99.90;;;;;;5122272;28;20429;-57
2023/01/08 11:52:26;;;;;;;4.97;4.20;;;9.50;99.90;;;;;;5128981;28;20469;-55
2023/01/08 11:55:13;;;;;;;7.37;4.60;;;9.40;99.90;;;;;;5127050;28;20436;-56
2023/01/08 11:57:54;;;;;;;6.80;4.20;;;9.40;99.90;;;;;;5120787;28;20413;-55
2023/01/08 12:00:38;;;;;;;8.50;4.50;;;9.50;99.90;;;;;;5118450;28;20473;-58
2023/01/08 12:03:22;;;;;;;5.73;4.67;;;9.50;99.90;;;;;;5114296;28;20439;-56
2023/01/08 12:06:01;;;;;;;7.50;4.23;;;9.50;99.90;;;;;;5116022;28;20467;-57
2023/01/08 12:08:33;;;;;;;6.60;4.83;;;9.40;99.90;;;;;;5136244;28;20436;-58
2023/01/08 12:11:09;;;;;;;5.10;4.27;;;9.40;99.90;;;;;;5139281;28;20479;-60
2023/01/08 12:13:56;;;;;;;5.67;4.63;;;9.40;99.90;;;;;;5138429;28;20463;-56
2023/01/08 12:16:42;;;;;;;11.37;5.50;;;9.50;99.90;;;;;;5136856;28;20899;-56
2023/01/08 12:19:23;;;;;;;8.93;5.37;;;9.50;99.90;;;;;;5126343;28;20471;-56
2023/01/08 12:22:10;;;;;;;6.47;4.77;;;9.60;99.90;;;;;;5138498;28;20484;-57
2023/01/08 12:25:03;;;;;;;6.70;4.60;;;9.50;99.90;;;;;;5137998;28;20475;-52
2023/01/08 12:27:43;;;;;;;7.37;5.10;;;9.60;99.90;;;;;;5131322;28;20468;-57
2023/01/08 12:30:24;;;;;;;7.70;4.93;;;9.70;99.90;;;;;;5117607;28;20512;-49
2023/01/08 12:32:56;;;;;;;9.23;5.37;;;9.80;99.90;;;;;;5136571;28;20765;-55
2023/01/08 12:35:28;;;;;;;12.33;6.07;;;9.80;99.90;;;;;;5130143;28;20435;-56
2023/01/08 12:38:00;;;;;;;5.83;4.43;;;9.90;99.90;;;;;;5130575;28;20453;-61
2023/01/08 12:40:32;;;;;;;5.33;4.20;;;10.00;99.90;;;;;;5120081;28;20468;-53
2023/01/08 12:43:00;;;;;;;5.80;4.43;;;10.00;99.90;;;;;;5118619;28;20421;-55
2023/01/08 12:45:30;;;;;;;6.37;3.90;;;10.00;99.90;;;;;;5132406;28;20510;-58
2023/01/08 12:48:00;;;;;;;5.23;4.73;;;9.90;99.90;;;;;;5126242;28;20495;-61
2023/01/08 12:50:41;;;;;;;5.57;3.83;;;10.00;99.90;;;;;;5124257;28;20445;-59
2023/01/08 12:53:16;;;;;;;6.50;4.70;;;10.00;99.90;;;;;;5126456;28;20459;-59
2023/01/08 12:55:52;;;;;;;5.60;3.73;;;9.90;99.90;;;;;;5120579;28;20455;-57
2023/01/08 12:58:34;;;;;;;6.73;4.50;;;9.90;99.90;;;;;;5131295;28;20460;-59
2023/01/08 13:01:16;;;;;;;5.53;4.27;;;9.90;99.90;;;;;;5127104;28;20484;-53
2023/01/08 13:03:44;;;;;;;5.70;3.60;;;9.90;99.90;;;;;;5130095;28;20510;-51
2023/01/08 13:06:15;;;;;;;7.90;5.37;;;9.90;99.90;;;;;;5128257;28;20423;-54
2023/01/08 13:08:48;;;;;;;9.50;5.90;;;9.90;99.90;;;;;;5131012;28;20487;-52
2023/01/08 13:11:25;;;;;;;15.07;5.17;;;9.90;99.90;;;;;;5131077;28;20429;-59